Time;durP1;ratioP1;P1;durP2;ratioP2;P2;SDS_P1;SDS_P2;PMS_P1;PMS_P2;Temp;Humidity;BMP_temperature;BMP_pressure;BME280_temperature;BME280_humidity;BME280_pressure;Samples;Min_cycle;Max_cycle;Signal;HPM_P1;HPM_P2
2021/07/17 00:00:42;;;;;;;1.20;1.10;;;16.50;99.90;;;;;;6272691;22;20019;-80
2021/07/17 00:03:10;;;;;;;1.17;1.15;;;16.50;99.90;;;;;;6279214;22;20019;-80
2021/07/17 00:05:38;;;;;;;1.30;1.20;;;16.50;99.90;;;;;;6284187;22;20458;-79
2021/07/17 00:08:06;;;;;;;1.73;1.63;;;16.50;99.90;;;;;;6274992;22;20020;-79
2021/07/17 00:10:47;;;;;;;8.18;1.70;;;16.40;99.90;;;;;;6275914;22;20026;-79
2021/07/17 00:13:19;;;;;;;2.25;2.05;;;16.40;99.90;;;;;;6284056;22;20030;-79
2021/07/17 00:15:48;;;;;;;1.92;1.52;;;16.40;99.90;;;;;;6275670;22;20038;-80
2021/07/17 00:18:17;;;;;;;1.80;1.70;;;16.40;99.90;;;;;;6283059;22;20019;-79
2021/07/17 00:20:46;;;;;;;2.58;2.38;;;16.40;99.90;;;;;;6284008;22;20008;-79
2021/07/17 00:23:15;;;;;;;1.83;1.70;;;16.40;99.90;;;;;;6276657;22;20026;-79
2021/07/17 00:25:45;;;;;;;7.05;2.20;;;16.40;99.90;;;;;;6246412;22;20015;-79
2021/07/17 00:28:20;;;;;;;2.10;1.90;;;16.30;99.90;;;;;;6273794;22;20034;-79
2021/07/17 00:30:48;;;;;;;2.08;1.88;;;16.30;99.90;;;;;;6276719;22;20016;-79
2021/07/17 00:33:16;;;;;;;1.98;1.88;;;16.30;99.90;;;;;;6282999;22;20018;-80
2021/07/17 00:35:44;;;;;;;2.25;2.10;;;16.30;99.90;;;;;;6275143;22;20034;-79
2021/07/17 00:38:16;;;;;;;2.25;1.98;;;16.30;99.90;;;;;;6280281;22;20016;-79
2021/07/17 00:40:44;;;;;;;2.72;2.50;;;16.30;99.90;;;;;;6283010;22;20458;-79
2021/07/17 00:43:12;;;;;;;5.95;2.25;;;16.30;99.90;;;;;;6270048;22;20027;-79
2021/07/17 00:45:42;;;;;;;2.28;2.08;;;16.40;99.90;;;;;;6282361;22;20016;-79
2021/07/17 00:48:15;;;;;;;3.58;2.35;;;16.30;99.90;;;;;;6269280;22;20024;-79
2021/07/17 00:50:43;;;;;;;7.65;2.80;;;16.30;99.90;;;;;;6277749;22;20019;-79
2021/07/17 00:53:11;;;;;;;1.75;1.67;;;16.30;99.90;;;;;;6283267;22;20022;-79
2021/07/17 00:55:44;;;;;;;2.70;2.50;;;16.20;99.90;;;;;;6274631;22;20032;-79
2021/07/17 00:58:15;;;;;;;2.53;2.30;;;16.20;99.90;;;;;;6282089;22;20023;-79
2021/07/17 01:00:44;;;;;;;5.53;2.75;;;16.30;99.90;;;;;;6279813;22;20308;-79
2021/07/17 01:03:14;;;;;;;3.13;2.45;;;16.30;99.90;;;;;;6277762;22;20027;-79
2021/07/17 01:05:42;;;;;;;2.78;2.58;;;16.40;99.90;;;;;;6270652;22;20019;-79
2021/07/17 01:08:10;;;;;;;2.65;2.45;;;16.40;99.90;;;;;;6271996;22;20343;-79
2021/07/17 01:10:39;;;;;;;2.92;2.60;;;16.40;99.90;;;;;;6274228;22;20030;-79
2021/07/17 01:13:07;;;;;;;3.63;3.28;;;16.40;99.90;;;;;;6280643;22;20015;-79
2021/07/17 01:15:35;;;;;;;2.75;2.55;;;16.40;99.90;;;;;;6274788;22;20031;-79
2021/07/17 01:18:04;;;;;;;4.47;2.90;;;16.40;99.90;;;;;;6283156;22;20011;-79
2021/07/17 01:20:33;;;;;;;3.45;2.72;;;16.30;99.90;;;;;;6271510;22;20339;-79
2021/07/17 01:23:01;;;;;;;6.53;2.88;;;16.30;99.90;;;;;;6278288;22;20024;-79
2021/07/17 01:25:31;;;;;;;3.80;3.08;;;16.30;99.90;;;;;;6281122;22;20022;-79
2021/07/17 01:27:59;;;;;;;2.97;2.77;;;16.30;99.90;;;;;;6273647;22;20034;-79
2021/07/17 01:30:34;;;;;;;3.63;3.10;;;16.30;99.90;;;;;;6279226;22;20024;-79
2021/07/17 01:33:06;;;;;;;3.88;3.38;;;16.30;99.90;;;;;;6282836;22;20019;-79
2021/07/17 01:35:35;;;;;;;7.23;2.93;;;16.20;99.90;;;;;;6274585;22;20347;-79
2021/07/17 01:38:07;;;;;;;3.30;3.00;;;16.20;99.90;;;;;;6281800;22;20451;-79
2021/07/17 01:40:35;;;;;;;6.53;3.30;;;16.30;99.90;;;;;;6270908;22;20542;-79
2021/07/17 01:43:03;;;;;;;2.92;2.60;;;16.30;99.90;;;;;;6275852;22;20026;-79
2021/07/17 01:45:35;;;;;;;4.40;3.03;;;16.30;99.90;;;;;;6282074;22;20031;-79
2021/07/17 01:48:04;;;;;;;3.33;3.03;;;16.30;99.90;;;;;;6273838;22;20023;-79
2021/07/17 01:50:32;;;;;;;3.72;3.42;;;16.30;99.90;;;;;;6280051;22;20016;-79
2021/07/17 01:53:00;;;;;;;5.63;4.20;;;16.30;99.90;;;;;;6282179;22;20020;-79
2021/07/17 01:55:28;;;;;;;3.72;3.03;;;16.30;99.90;;;;;;6276259;22;20032;-79
2021/07/17 01:57:57;;;;;;;4.65;3.30;;;16.20;99.90;;;;;;6282509;22;20023;-79
2021/07/17 02:00:25;;;;;;;8.25;4.22;;;16.20;99.90;;;;;;6269247;22;20027;-79
2021/07/17 02:02:53;;;;;;;3.10;2.88;;;16.20;99.90;;;;;;6278535;22;20023;-79
2021/07/17 02:05:25;;;;;;;3.75;3.42;;;16.10;99.90;;;;;;6282464;22;20013;-79
2021/07/17 02:07:58;;;;;;;3.50;3.20;;;16.10;99.90;;;;;;6274265;22;20462;-79
2021/07/17 02:10:30;;;;;;;2.95;2.65;;;16.10;99.90;;;;;;6274353;22;20034;-79
2021/07/17 02:13:07;;;;;;;3.53;3.22;;;16.10;99.90;;;;;;6282586;22;20018;-79
2021/07/17 02:15:41;;;;;;;4.13;2.78;;;16.00;99.90;;;;;;6274987;22;20063;-79
2021/07/17 02:18:11;;;;;;;3.97;3.10;;;16.00;99.90;;;;;;6268946;22;20027;-79
2021/07/17 02:20:40;;;;;;;3.67;3.38;;;16.00;99.90;;;;;;6282640;22;20020;-79
2021/07/17 02:23:10;;;;;;;3.67;3.38;;;16.00;99.90;;;;;;6279316;22;20066;-79
2021/07/17 02:25:37;;;;;;;4.53;4.22;;;16.00;99.90;;;;;;6283945;22;20458;-79
2021/07/17 02:28:05;;;;;;;3.35;3.05;;;16.00;99.90;;;;;;6274230;22;20027;-79
2021/07/17 02:30:33;;;;;;;6.00;3.13;;;15.90;99.90;;;;;;6279691;22;20355;-79
2021/07/17 02:33:01;;;;;;;4.55;4.07;;;15.90;99.90;;;;;;6284373;22;20020;-79
2021/07/17 02:35:29;;;;;;;3.97;3.58;;;15.90;99.90;;;;;;6276326;22;20043;-79
2021/07/17 02:37:58;;;;;;;3.38;3.13;;;15.80;99.90;;;;;;6284461;22;20016;-79
2021/07/17 02:40:30;;;;;;;4.55;4.25;;;15.80;99.90;;;;;;6271016;22;20031;-79
2021/07/17 02:42:58;;;;;;;6.10;4.90;;;15.70;99.90;;;;;;6279475;22;20012;-79
2021/07/17 02:45:26;;;;;;;3.72;3.38;;;15.70;99.90;;;;;;6283634;22;20462;-79
2021/07/17 02:47:53;;;;;;;5.95;4.88;;;15.70;99.90;;;;;;6270281;22;20324;-79
2021/07/17 02:50:21;;;;;;;7.68;4.47;;;15.60;99.90;;;;;;6282244;22;20008;-79
2021/07/17 02:52:50;;;;;;;3.90;3.60;;;15.60;99.90;;;;;;6284149;22;20019;-79
2021/07/17 02:55:18;;;;;;;9.98;8.32;;;15.60;99.90;;;;;;6277484;22;20023;-78
2021/07/17 02:57:45;;;;;;;3.78;3.53;;;15.60;99.90;;;;;;6284382;22;20011;-79
2021/07/17 03:00:14;;;;;;;6.47;4.55;;;15.60;99.90;;;;;;6273256;22;20038;-79
2021/07/17 03:02:42;;;;;;;4.63;4.22;;;15.60;99.90;;;;;;6280803;22;20023;-79
2021/07/17 03:05:11;;;;;;;4.05;3.75;;;15.60;99.90;;;;;;6272326;22;20020;-79
2021/07/17 03:07:39;;;;;;;4.63;4.22;;;15.60;99.90;;;;;;6275235;22;20023;-79
2021/07/17 03:10:08;;;;;;;5.60;3.83;;;15.60;99.90;;;;;;6276930;22;20035;-79
2021/07/17 03:12:36;;;;;;;5.18;4.68;;;15.60;99.90;;;;;;6283794;22;20012;-78
2021/07/17 03:15:05;;;;;;;4.90;4.47;;;15.70;99.90;;;;;;6278344;22;20026;-79
2021/07/17 03:17:32;;;;;;;6.15;4.85;;;15.60;99.90;;;;;;6284064;22;20031;-78
2021/07/17 03:20:00;;;;;;;4.85;4.45;;;15.70;99.90;;;;;;6273298;22;20024;-79
2021/07/17 03:22:29;;;;;;;5.43;4.97;;;15.60;99.90;;;;;;6281006;22;20451;-79
2021/07/17 03:24:57;;;;;;;5.43;4.93;;;15.60;99.90;;;;;;6283686;22;20015;-79
2021/07/17 03:27:24;;;;;;;5.05;4.60;;;15.60;99.90;;;;;;6277178;22;20024;-79
2021/07/17 03:29:52;;;;;;;5.72;5.22;;;15.60;99.90;;;;;;6282537;22;20019;-79
2021/07/17 03:32:26;;;;;;;5.63;5.15;;;15.60;99.90;;;;;;6273371;22;20323;-79
2021/07/17 03:34:55;;;;;;;4.95;4.55;;;15.70;99.90;;;;;;6278919;22;20023;-79
2021/07/17 03:37:25;;;;;;;5.20;4.80;;;15.70;99.90;;;;;;6283862;22;20312;-79
2021/07/17 03:39:53;;;;;;;7.75;6.97;;;15.70;99.90;;;;;;6272962;22;20027;-78
2021/07/17 03:42:21;;;;;;;5.93;5.43;;;15.70;99.90;;;;;;6281920;22;20022;-79
2021/07/17 03:44:49;;;;;;;6.45;5.75;;;15.70;99.90;;;;;;6282931;22;20027;-79
2021/07/17 03:47:16;;;;;;;10.55;5.28;;;15.70;99.90;;;;;;6278167;22;20034;-79
2021/07/17 03:49:44;;;;;;;5.72;5.20;;;15.70;99.90;;;;;;6283237;22;20585;-79
2021/07/17 03:52:12;;;;;;;6.43;5.82;;;15.70;99.90;;;;;;6273998;22;20031;-78
2021/07/17 03:54:40;;;;;;;6.57;5.97;;;15.80;99.90;;;;;;6279836;22;20467;-79
2021/07/17 03:57:07;;;;;;;6.05;5.55;;;15.80;99.90;;;;;;6283843;22;20439;-79
2021/07/17 03:59:37;;;;;;;7.65;6.85;;;15.80;99.90;;;;;;6275539;22;20060;-78
2021/07/17 04:02:04;;;;;;;6.78;6.07;;;15.80;99.90;;;;;;6282254;22;20020;-79
2021/07/17 04:04:39;;;;;;;7.90;6.75;;;15.80;99.90;;;;;;6283487;22;20012;-79
2021/07/17 04:07:08;;;;;;;7.28;6.45;;;15.80;99.90;;;;;;6278605;22;20020;-79
2021/07/17 04:09:36;;;;;;;7.82;7.05;;;15.80;99.90;;;;;;6278176;22;20027;-79
2021/07/17 04:12:04;;;;;;;7.60;6.15;;;15.90;99.90;;;;;;6272266;22;20023;-80
2021/07/17 04:14:32;;;;;;;8.35;5.95;;;15.90;99.90;;;;;;6279143;22;20011;-79
2021/07/17 04:16:59;;;;;;;6.00;5.45;;;15.90;99.90;;;;;;6283528;22;20015;-79
2021/07/17 04:19:27;;;;;;;11.13;6.78;;;15.90;99.90;;;;;;6276932;22;20023;-80
2021/07/17 04:21:55;;;;;;;8.07;7.00;;;15.90;99.90;;;;;;6283169;22;20023;-80
2021/07/17 04:24:23;;;;;;;8.43;6.63;;;15.90;99.90;;;;;;6272958;22;20502;-80
2021/07/17 04:26:51;;;;;;;7.57;6.43;;;15.90;99.90;;;;;;6279255;22;20026;-80
2021/07/17 04:29:21;;;;;;;8.65;7.00;;;15.90;99.90;;;;;;6282274;22;20536;-80
2021/07/17 04:31:54;;;;;;;10.93;8.57;;;16.00;99.90;;;;;;6272128;22;20027;-79
2021/07/17 04:34:27;;;;;;;13.48;8.90;;;16.00;99.90;;;;;;6245187;22;20027;-79
2021/07/17 04:36:55;;;;;;;11.38;7.53;;;16.00;99.90;;;;;;6283453;22;20014;-80
2021/07/17 04:39:23;;;;;;;13.00;8.02;;;16.10;99.90;;;;;;6276741;22;20019;-80
2021/07/17 04:41:52;;;;;;;8.98;8.07;;;16.10;99.90;;;;;;6282442;22;20035;-79
2021/07/17 04:44:20;;;;;;;10.40;9.35;;;16.10;99.90;;;;;;6271832;22;20366;-79
2021/07/17 04:46:48;;;;;;;13.77;8.20;;;16.10;99.90;;;;;;6279294;22;20019;-79
2021/07/17 04:49:16;;;;;;;10.32;8.10;;;16.20;99.90;;;;;;6281672;22;20012;-79
2021/07/17 04:51:43;;;;;;;10.73;9.57;;;16.10;99.90;;;;;;6274814;22;20450;-79
2021/07/17 04:54:11;;;;;;;11.00;8.63;;;16.20;99.90;;;;;;6281598;22;20019;-79
2021/07/17 04:56:39;;;;;;;14.45;8.15;;;16.20;99.90;;;;;;6283487;22;20012;-79
2021/07/17 04:59:06;;;;;;;12.38;10.48;;;16.30;99.90;;;;;;6277462;22;20019;-79
2021/07/17 05:01:34;;;;;;;12.80;9.18;;;16.30;99.90;;;;;;6282889;22;20016;-80
2021/07/17 05:04:03;;;;;;;11.57;9.98;;;16.30;99.90;;;;;;6272508;22;20031;-79
2021/07/17 05:06:30;;;;;;;11.75;9.70;;;16.40;99.90;;;;;;6280498;22;20442;-80
2021/07/17 05:08:58;;;;;;;14.30;10.65;;;16.40;99.90;;;;;;6282221;22;20538;-79
2021/07/17 05:11:26;;;;;;;15.27;9.68;;;16.40;99.90;;;;;;6276483;22;20019;-80
2021/07/17 05:13:54;;;;;;;12.13;10.80;;;16.40;99.90;;;;;;6282287;22;20007;-80
2021/07/17 05:16:21;;;;;;;15.02;11.10;;;16.50;99.90;;;;;;6272627;22;20023;-80
2021/07/17 05:18:49;;;;;;;11.30;10.23;;;16.60;99.90;;;;;;6279340;22;20020;-79
2021/07/17 05:21:17;;;;;;;12.23;9.43;;;16.60;99.90;;;;;;6282270;22;20007;-80
2021/07/17 05:23:47;;;;;;;18.20;10.75;;;16.60;99.90;;;;;;6274754;22;20046;-80
2021/07/17 05:26:15;;;;;;;28.25;12.63;;;16.60;99.90;;;;;;6269552;22;20023;-79
2021/07/17 05:28:43;;;;;;;20.70;13.05;;;16.60;99.90;;;;;;6269220;22;20035;-80
2021/07/17 05:31:11;;;;;;;33.95;13.88;;;16.60;99.90;;;;;;6277304;22;20030;-79
2021/07/17 05:33:39;;;;;;;16.63;13.10;;;16.70;99.90;;;;;;6280799;22;20023;-79
2021/07/17 05:36:06;;;;;;;19.00;13.57;;;16.70;99.90;;;;;;6273676;22;20023;-80
2021/07/17 05:38:34;;;;;;;21.00;15.85;;;16.70;99.90;;;;;;6278632;22;20020;-80
2021/07/17 05:41:02;;;;;;;20.98;14.45;;;16.70;99.90;;;;;;6282129;22;20011;-80
2021/07/17 05:43:29;;;;;;;29.35;15.15;;;16.70;99.90;;;;;;6274385;22;20626;-79
2021/07/17 05:45:57;;;;;;;21.75;14.88;;;16.80;99.90;;;;;;6280342;22;20011;-80
2021/07/17 05:48:27;;;;;;;23.70;15.75;;;16.80;99.90;;;;;;6271650;22;20023;-81
2021/07/17 05:51:01;;;;;;;20.20;12.95;;;16.80;99.90;;;;;;6271560;22;20023;-80
2021/07/17 05:53:28;;;;;;;22.67;15.02;;;16.80;99.90;;;;;;6281306;22;20331;-80
2021/07/17 05:55:56;;;;;;;28.25;14.68;;;16.80;99.90;;;;;;6268757;22;20015;-80
2021/07/17 05:58:24;;;;;;;20.55;14.38;;;16.90;99.90;;;;;;6271568;22;20019;-81
2021/07/17 06:00:52;;;;;;;32.65;14.98;;;16.90;99.90;;;;;;6270627;22;20071;-80
2021/07/17 06:03:19;;;;;;;24.92;14.52;;;16.90;99.90;;;;;;6278717;22;20023;-80
2021/07/17 06:05:47;;;;;;;27.50;15.85;;;17.00;99.90;;;;;;6272129;22;20018;-80
2021/07/17 06:08:15;;;;;;;23.88;18.60;;;16.90;99.90;;;;;;6274835;22;20458;-83
2021/07/17 06:10:43;;;;;;;25.60;14.73;;;17.00;99.90;;;;;;6274030;22;20008;-80
2021/07/17 06:13:10;;;;;;;20.83;14.65;;;17.10;99.90;;;;;;6284106;22;20008;-80
2021/07/17 06:15:38;;;;;;;20.23;13.07;;;17.20;99.90;;;;;;6244892;22;20066;-81
2021/07/17 06:18:06;;;;;;;23.58;14.90;;;17.20;99.90;;;;;;6283744;22;20011;-80
2021/07/17 06:20:34;;;;;;;30.52;17.23;;;17.20;99.90;;;;;;6282279;22;20011;-80
2021/07/17 06:23:02;;;;;;;26.63;14.80;;;17.10;99.90;;;;;;6270754;22;20023;-80
2021/07/17 06:25:30;;;;;;;27.80;15.57;;;17.20;99.90;;;;;;6284304;22;20012;-81
2021/07/17 06:27:58;;;;;;;23.67;17.45;;;17.20;99.90;;;;;;6245156;22;20023;-80
2021/07/17 06:30:26;;;;;;;24.38;17.75;;;17.20;99.90;;;;;;6269580;22;20022;-80
2021/07/17 06:32:54;;;;;;;23.13;15.20;;;17.20;99.90;;;;;;6284495;22;20019;-80
2021/07/17 06:35:22;;;;;;;20.45;13.38;;;17.20;99.90;;;;;;6278647;22;20509;-81
2021/07/17 06:37:49;;;;;;;22.08;15.18;;;17.20;99.90;;;;;;6283192;22;20008;-80
2021/07/17 06:40:18;;;;;;;22.83;13.98;;;17.20;99.90;;;;;;6271095;22;20030;-81
2021/07/17 06:42:50;;;;;;;21.45;14.23;;;17.20;99.90;;;;;;6273054;22;20038;-80
2021/07/17 06:45:19;;;;;;;20.13;15.10;;;17.20;99.90;;;;;;6282936;22;20023;-81
2021/07/17 06:47:48;;;;;;;20.88;16.02;;;17.20;99.90;;;;;;6276170;22;20024;-81
2021/07/17 06:50:17;;;;;;;19.90;16.60;;;17.20;99.90;;;;;;6280175;22;20008;-79
2021/07/17 06:52:45;;;;;;;20.17;15.57;;;17.30;99.90;;;;;;6271545;22;20042;-80
2021/07/17 06:55:13;;;;;;;21.40;15.88;;;17.30;99.90;;;;;;6278215;22;20027;-80
2021/07/17 06:57:45;;;;;;;20.90;15.95;;;17.30;99.90;;;;;;6282481;22;20019;-80
2021/07/17 07:00:14;;;;;;;;;;;17.30;99.90;;;;;;6273699;22;20034;-82
2021/07/17 07:02:42;;;;;;;27.15;14.95;;;17.40;99.90;;;;;;6279347;22;19929;-81
2021/07/17 07:05:11;;;;;;;20.90;13.38;;;17.30;99.90;;;;;;6282877;22;20026;-81
2021/07/17 07:07:42;;;;;;;20.88;13.52;;;17.30;99.90;;;;;;6276344;22;20475;-82
2021/07/17 07:10:15;;;;;;;22.58;14.35;;;17.30;99.90;;;;;;6272779;22;20015;-82
2021/07/17 07:12:42;;;;;;;22.08;12.48;;;17.40;99.90;;;;;;6282339;22;20019;-82
2021/07/17 07:15:15;;;;;;;22.70;15.23;;;17.40;99.90;;;;;;6277732;22;20042;-81
2021/07/17 07:17:43;;;;;;;24.20;15.88;;;17.40;99.90;;;;;;6282470;22;20027;-81
2021/07/17 07:20:12;;;;;;;23.42;14.50;;;17.40;99.90;;;;;;6272667;22;20019;-82
2021/07/17 07:22:40;;;;;;;28.58;15.15;;;17.50;99.90;;;;;;6279255;22;20046;-82
2021/07/17 07:25:09;;;;;;;27.20;16.30;;;17.50;99.90;;;;;;6284058;22;20431;-81
2021/07/17 07:27:37;;;;;;;32.33;18.23;;;17.50;99.90;;;;;;6276603;22;20446;-81
2021/07/17 07:30:05;;;;;;;29.50;18.30;;;17.40;99.90;;;;;;6282920;22;20427;-81
2021/07/17 07:32:48;;;;;;;21.65;16.55;;;17.50;99.90;;;;;;6283841;22;20018;-81
2021/07/17 07:35:18;;;;;;;23.48;15.77;;;17.40;99.90;;;;;;6276860;22;20018;-83
2021/07/17 07:37:50;;;;;;;23.98;17.55;;;17.40;99.90;;;;;;6284427;22;20011;-83
2021/07/17 07:40:19;;;;;;;26.33;16.20;;;17.50;99.90;;;;;;6243467;22;20019;-84
2021/07/17 07:42:47;;;;;;;30.15;16.30;;;17.50;99.90;;;;;;6278613;22;20649;-80
2021/07/17 07:45:15;;;;;;;21.38;15.73;;;17.60;99.90;;;;;;6281792;22;20022;-82
2021/07/17 07:47:44;;;;;;;26.40;16.13;;;17.60;99.90;;;;;;6270627;22;20038;-84
2021/07/17 07:50:12;;;;;;;23.73;15.65;;;17.60;99.90;;;;;;6221392;22;20024;-83
2021/07/17 07:52:40;;;;;;;24.80;15.65;;;17.60;99.90;;;;;;6282597;22;20011;-84
2021/07/17 07:55:11;;;;;;;22.38;15.25;;;17.70;99.90;;;;;;6245305;22;20031;-82
2021/07/17 07:57:45;;;;;;;25.13;14.45;;;17.60;99.90;;;;;;6272323;22;20016;-82
2021/07/17 08:00:14;;;;;;;23.40;15.45;;;17.60;99.90;;;;;;6271782;22;20780;-82
2021/07/17 08:02:58;;;;;;;24.30;15.98;;;17.60;99.90;;;;;;6279942;22;20483;-80
2021/07/17 08:05:26;;;;;;;22.90;17.52;;;17.70;99.90;;;;;;6271439;22;20019;-80
2021/07/17 08:07:54;;;;;;;18.70;13.77;;;17.80;99.90;;;;;;6270819;22;20024;-80
2021/07/17 08:10:22;;;;;;;27.42;16.13;;;17.80;99.90;;;;;;6276089;22;20022;-81
2021/07/17 08:12:51;;;;;;;18.92;15.13;;;17.70;99.90;;;;;;6245301;22;20020;-80
2021/07/17 08:15:19;;;;;;;24.05;14.45;;;17.70;99.90;;;;;;6277368;22;20024;-81
2021/07/17 08:17:47;;;;;;;22.63;13.77;;;17.80;99.90;;;;;;6284208;22;20008;-82
2021/07/17 08:20:16;;;;;;;26.38;15.82;;;17.80;99.90;;;;;;6245293;22;20016;-82
2021/07/17 08:22:44;;;;;;;29.35;14.52;;;17.80;99.90;;;;;;6270886;22;20016;-82
2021/07/17 08:25:12;;;;;;;26.20;15.10;;;17.90;99.90;;;;;;6284171;22;20646;-83
2021/07/17 08:32:10;;;;;;;30.67;12.65;;;17.90;99.90;;;;;;6262542;22;20027;-90
2021/07/17 08:34:38;;;;;;;22.27;13.35;;;17.80;99.90;;;;;;6343343;22;20038;-84
2021/07/17 08:37:06;;;;;;;25.33;15.82;;;17.80;99.90;;;;;;6345626;22;20358;-86
2021/07/17 08:39:33;;;;;;;20.08;13.50;;;17.90;99.90;;;;;;6311407;22;20018;-86
2021/07/17 08:42:03;;;;;;;23.75;15.85;;;17.90;99.90;;;;;;6257252;22;20022;-86
2021/07/17 08:44:32;;;;;;;23.55;14.80;;;18.00;99.90;;;;;;6221059;22;20020;-86
2021/07/17 08:47:02;;;;;;;18.27;13.32;;;18.10;99.90;;;;;;6248000;22;20022;-82
2021/07/17 08:49:36;;;;;;;20.58;14.45;;;18.20;99.90;;;;;;6247872;22;20019;-82
2021/07/17 08:52:06;;;;;;;21.90;15.02;;;18.20;99.90;;;;;;6278041;22;20466;-83
2021/07/17 08:54:34;;;;;;;20.13;14.45;;;18.30;99.90;;;;;;6284630;22;20328;-81
2021/07/17 08:57:02;;;;;;;22.70;15.00;;;18.40;99.90;;;;;;6250635;22;20019;-82
2021/07/17 08:59:32;;;;;;;17.98;11.75;;;18.40;99.90;;;;;;6306842;22;20362;-82
2021/07/17 09:02:00;;;;;;;19.52;15.95;;;18.40;99.90;;;;;;6275621;22;20351;-80
2021/07/17 09:04:32;;;;;;;17.08;11.90;;;18.60;99.90;;;;;;6303504;22;20023;-83
2021/07/17 09:07:00;;;;;;;23.00;14.02;;;18.90;99.90;;;;;;6310113;22;20015;-84
2021/07/17 09:09:33;;;;;;;16.88;13.32;;;19.00;99.90;;;;;;6286744;22;20466;-83
2021/07/17 09:12:01;;;;;;;22.92;13.80;;;19.30;99.90;;;;;;6278332;22;20019;-82
2021/07/17 09:14:38;;;;;;;15.80;11.68;;;19.40;99.90;;;;;;6274021;22;20023;-83
2021/07/17 09:17:20;;;;;;;;;;;19.30;99.90;;;;;;6276427;22;20019;-83
2021/07/17 09:19:59;;;;;;;19.83;12.00;;;19.20;99.90;;;;;;6254505;22;20260;-83
2021/07/17 09:22:37;;;;;;;19.23;12.70;;;19.20;99.90;;;;;;6276113;22;20508;-83
2021/07/17 09:25:05;;;;;;;20.25;13.15;;;19.30;99.90;;;;;;6287491;22;20011;-83
2021/07/17 09:27:33;;;;;;;18.40;13.25;;;19.40;99.90;;;;;;6307869;22;20019;-82
2021/07/17 09:30:00;;;;;;;21.83;13.93;;;19.50;99.90;;;;;;6260767;22;20018;-83
2021/07/17 09:32:28;;;;;;;20.83;13.27;;;19.40;99.90;;;;;;6278749;22;20355;-82
2021/07/17 09:35:15;;;;;;;23.27;12.13;;;19.40;99.90;;;;;;6312639;22;20020;-82
2021/07/17 09:37:54;;;;;;;20.48;12.18;;;19.30;99.90;;;;;;6227369;22;20019;-82
2021/07/17 09:40:24;;;;;;;19.17;12.82;;;19.30;99.90;;;;;;6278775;22;20026;-82
2021/07/17 09:42:52;;;;;;;16.15;12.23;;;19.30;99.90;;;;;;6252248;22;20030;-81
2021/07/17 09:45:40;;;;;;;23.10;14.27;;;19.30;99.90;;;;;;6277589;22;20019;-82
2021/07/17 09:48:21;;;;;;;20.25;14.13;;;19.20;99.90;;;;;;6252703;22;20030;-83
2021/07/17 09:50:50;;;;;;;20.92;13.63;;;19.20;99.90;;;;;;6228251;22;20442;-83
2021/07/17 09:53:36;;;;;;;25.92;13.88;;;19.30;99.90;;;;;;6252932;22;20019;-83
2021/07/17 09:56:05;;;;;;;19.58;15.65;;;19.30;99.90;;;;;;6305868;22;20023;-82
2021/07/17 09:58:33;;;;;;;21.40;14.52;;;19.40;99.90;;;;;;6313728;22;20019;-81
2021/07/17 10:01:23;;;;;;;23.02;13.98;;;19.50;99.90;;;;;;6315561;22;20022;-81
2021/07/17 10:03:57;;;;;;;19.13;13.95;;;19.40;99.90;;;;;;6308285;22;20034;-81
2021/07/17 10:06:27;;;;;;;20.60;14.68;;;19.20;99.90;;;;;;6314460;22;20020;-81
2021/07/17 10:08:55;;;;;;;24.15;14.90;;;19.40;99.90;;;;;;6316187;22;20019;-82
2021/07/17 10:11:27;;;;;;;19.85;12.07;;;19.50;99.90;;;;;;6309547;22;20027;-82
2021/07/17 10:13:55;;;;;;;18.50;12.13;;;19.50;99.90;;;;;;6276574;22;20022;-81
2021/07/17 10:16:27;;;;;;;19.63;13.88;;;19.40;99.90;;;;;;6305710;22;20027;-81
2021/07/17 10:18:55;;;;;;;15.38;13.75;;;19.60;99.90;;;;;;6251561;22;20019;-83
2021/07/17 10:21:23;;;;;;;22.95;13.63;;;19.70;99.90;;;;;;6289301;22;20034;-82
2021/07/17 10:23:51;;;;;;;23.95;13.40;;;19.70;99.90;;;;;;6281939;22;20342;-86
2021/07/17 10:26:19;;;;;;;19.42;12.73;;;19.60;99.90;;;;;;6302275;22;20011;-82
2021/07/17 10:28:47;;;;;;;16.67;11.73;;;19.40;99.90;;;;;;6315591;22;20019;-84
2021/07/17 10:31:15;;;;;;;19.83;13.07;;;19.30;99.90;;;;;;6283648;22;20031;-83
2021/07/17 10:33:46;;;;;;;16.63;12.82;;;19.10;99.90;;;;;;6253453;22;20011;-82
2021/07/17 10:36:21;;;;;;;18.77;11.50;;;19.00;99.90;;;;;;6305448;22;20015;-81
2021/07/17 10:38:54;;;;;;;17.17;12.52;;;19.00;99.90;;;;;;6312351;22;20022;-82
2021/07/17 10:41:24;;;;;;;17.85;12.00;;;19.00;99.90;;;;;;6288565;22;20326;-81
2021/07/17 10:43:53;;;;;;;20.65;11.38;;;19.00;99.90;;;;;;6279638;22;20023;-83
2021/07/17 10:46:33;;;;;;;19.30;13.93;;;19.00;99.90;;;;;;6307023;22;20031;-83
2021/07/17 10:49:07;;;;;;;22.25;12.82;;;18.90;99.90;;;;;;6228838;22;20319;-82
2021/07/17 10:51:37;;;;;;;16.63;12.45;;;18.80;99.90;;;;;;6281520;22;20027;-82
2021/07/17 10:54:08;;;;;;;23.08;13.05;;;18.80;99.90;;;;;;6315409;22;20038;-82
2021/07/17 10:56:39;;;;;;;18.10;12.90;;;18.80;99.90;;;;;;6277133;22;20019;-81
2021/07/17 10:59:13;;;;;;;19.88;14.23;;;18.90;99.90;;;;;;6309741;22;20521;-82
2021/07/17 11:02:04;;;;;;;18.70;13.38;;;19.10;99.90;;;;;;6315969;22;20020;-84
2021/07/17 11:04:44;;;;;;;22.63;14.90;;;19.00;99.90;;;;;;6278278;22;20482;-85
2021/07/17 11:07:26;;;;;;;21.85;16.00;;;18.70;99.90;;;;;;6281510;22;20019;-82
2021/07/17 11:10:11;;;;;;;23.20;14.18;;;18.60;99.90;;;;;;6262344;22;20762;-83
2021/07/17 11:12:59;;;;;;;19.42;15.73;;;18.50;99.90;;;;;;6181021;22;20039;-83
2021/07/17 11:15:49;;;;;;;20.65;14.43;;;18.50;99.90;;;;;;6273233;22;20023;-82
2021/07/17 11:18:19;;;;;;;24.58;14.40;;;18.50;99.90;;;;;;6286443;22;20448;-82
2021/07/17 11:20:46;;;;;;;22.13;15.70;;;18.50;99.90;;;;;;6315284;22;20314;-84
2021/07/17 11:23:16;;;;;;;20.50;16.30;;;18.70;99.90;;;;;;6283071;22;20027;-81
2021/07/17 11:25:56;;;;;;;20.92;13.38;;;18.70;99.90;;;;;;6251534;22;20018;-81
2021/07/17 11:29:19;;;;;;;15.90;12.57;;;18.70;99.90;;;;;;6251417;22;20030;-82
2021/07/17 11:31:45;;;;;;;17.23;13.13;;;18.50;99.90;;;;;;6272688;22;20031;-82
2021/07/17 11:34:22;;;;;;;21.90;13.20;;;18.40;99.90;;;;;;6250974;22;20022;-84
2021/07/17 11:36:52;;;;;;;25.17;12.95;;;18.30;99.90;;;;;;6315919;22;20007;-82
2021/07/17 11:39:26;;;;;;;21.48;14.10;;;18.30;99.90;;;;;;6282521;22;20491;-81
2021/07/17 11:41:54;;;;;;;20.55;13.90;;;18.30;99.90;;;;;;6315299;22;20022;-84
2021/07/17 11:44:27;;;;;;;24.77;16.45;;;18.40;99.90;;;;;;6251083;22;20030;-82
2021/07/17 11:47:17;;;;;;;24.77;13.48;;;18.60;99.90;;;;;;6275508;22;20049;-83
2021/07/17 11:49:48;;;;;;;20.10;14.07;;;18.80;99.90;;;;;;6251724;22;20016;-82
2021/07/17 11:52:21;;;;;;;20.48;14.57;;;18.90;99.90;;;;;;6277564;22;20027;-84
2021/07/17 11:55:06;;;;;;;18.40;13.07;;;18.80;99.90;;;;;;6311225;22;20015;-83
2021/07/17 11:57:35;;;;;;;22.80;14.75;;;18.70;99.90;;;;;;6315467;22;20335;-82
2021/07/17 12:00:19;;;;;;;28.00;15.82;;;18.70;99.90;;;;;;6275687;22;20027;-82
2021/07/17 12:02:54;;;;;;;18.95;14.90;;;18.70;99.90;;;;;;6311577;22;20030;-83
2021/07/17 12:05:26;;;;;;;23.95;12.25;;;18.70;99.90;;;;;;6277749;22;20283;-90
2021/07/17 12:08:04;;;;;;;19.45;12.98;;;18.70;99.90;;;;;;6260999;22;20027;-82
2021/07/17 12:10:36;;;;;;;24.45;14.65;;;18.80;99.90;;;;;;6295969;22;20026;-85
2021/07/17 12:13:06;;;;;;;19.00;13.15;;;18.90;99.90;;;;;;6286013;22;20046;-82
2021/07/17 12:15:38;;;;;;;25.10;13.20;;;19.10;99.90;;;;;;6279446;22;20460;-81
2021/07/17 12:18:13;;;;;;;19.45;14.52;;;19.30;99.90;;;;;;6299578;22;20071;-82
2021/07/17 12:20:49;;;;;;;18.52;13.90;;;19.30;99.90;;;;;;6313971;22;20018;-82
2021/07/17 12:23:20;;;;;;;20.65;15.15;;;19.50;99.90;;;;;;6282394;22;20022;-86
2021/07/17 12:26:04;;;;;;;20.52;14.75;;;19.60;99.90;;;;;;6277053;22;20362;-85
2021/07/17 12:28:44;;;;;;;18.27;12.48;;;19.70;99.90;;;;;;6251193;22;20030;-85
2021/07/17 12:31:13;;;;;;;21.33;14.52;;;19.90;99.90;;;;;;6309264;22;20015;-85
2021/07/17 12:33:50;;;;;;;20.30;12.80;;;20.10;99.90;;;;;;6315512;22;20023;-85
2021/07/17 12:36:38;;;;;;;20.08;13.60;;;20.00;99.90;;;;;;6250596;22;20023;-85
2021/07/17 12:40:13;;;;;;;22.55;14.60;;;19.80;99.90;;;;;;6280588;22;20035;-84
2021/07/17 12:43:25;;;;;;;16.15;12.65;;;19.70;99.90;;;;;;6169692;23;20044;-85
2021/07/17 12:46:02;;;;;;;20.80;14.32;;;19.70;99.90;;;;;;6224874;22;20015;-86
2021/07/17 12:48:30;;;;;;;28.55;16.45;;;19.60;99.90;;;;;;6276775;22;20019;-83
2021/07/17 12:51:12;;;;;;;29.27;14.73;;;19.50;99.90;;;;;;6283116;22;20019;-84
2021/07/17 12:53:43;;;;;;;25.95;15.40;;;19.50;99.90;;;;;;6287892;22;20008;-83
2021/07/17 12:56:26;;;;;;;23.33;12.50;;;19.40;99.90;;;;;;6277155;22;20019;-83
2021/07/17 12:58:55;;;;;;;20.05;14.48;;;19.30;99.90;;;;;;6257442;22;20023;-85